sensor_id;sensor_type;location;lat;lon;timestamp;pressure;altitude;pressure_sealevel;temperature
50206;BMP280;36098;48.390;10.856;2022-07-24T00:01:39;96435.41;;;28.10
50206;BMP280;36098;48.390;10.856;2022-07-24T00:04:05;96442.66;;;28.18
50206;BMP280;36098;48.390;10.856;2022-07-24T00:06:31;96439.84;;;28.14
50206;BMP280;36098;48.390;10.856;2022-07-24T00:08:56;96443.25;;;28.15
50206;BMP280;36098;48.390;10.856;2022-07-24T00:11:21;96440.72;;;28.10
50206;BMP280;36098;48.390;10.856;2022-07-24T00:13:47;96444.94;;;28.11
50206;BMP280;36098;48.390;10.856;2022-07-24T00:16:12;96444.16;;;28.10
50206;BMP280;36098;48.390;10.856;2022-07-24T00:18:38;96448.44;;;28.06
50206;BMP280;36098;48.390;10.856;2022-07-24T00:21:03;96444.16;;;28.10
50206;BMP280;36098;48.390;10.856;2022-07-24T00:23:29;96443.94;;;28.07
50206;BMP280;36098;48.390;10.856;2022-07-24T00:25:54;96450.03;;;28.07
50206;BMP280;36098;48.390;10.856;2022-07-24T00:28:20;96444.22;;;28.05
50206;BMP280;36098;48.390;10.856;2022-07-24T00:30:45;96453.22;;;28.09
50206;BMP280;36098;48.390;10.856;2022-07-24T00:33:11;96449.53;;;28.05
50206;BMP280;36098;48.390;10.856;2022-07-24T00:35:36;96447.91;;;28.09
50206;BMP280;36098;48.390;10.856;2022-07-24T00:38:02;96450.03;;;28.07
50206;BMP280;36098;48.390;10.856;2022-07-24T00:40:28;96453.75;;;28.06
50206;BMP280;36098;48.390;10.856;2022-07-24T00:42:53;96448.28;;;28.03
50206;BMP280;36098;48.390;10.856;2022-07-24T00:45:19;96445.31;;;28.04
50206;BMP280;36098;48.390;10.856;2022-07-24T00:47:44;96445.75;;;28.11
50206;BMP280;36098;48.390;10.856;2022-07-24T00:50:10;96440.00;;;28.04
50206;BMP280;36098;48.390;10.856;2022-07-24T00:52:36;96438.25;;;28.00
50206;BMP280;36098;48.390;10.856;2022-07-24T00:55:02;96432.63;;;28.01
50206;BMP280;36098;48.390;10.856;2022-07-24T00:57:27;96424.66;;;28.01
50206;BMP280;36098;48.390;10.856;2022-07-24T00:59:53;96438.25;;;28.00
50206;BMP280;36098;48.390;10.856;2022-07-24T01:02:18;96432.13;;;27.99
50206;BMP280;36098;48.390;10.856;2022-07-24T01:04:43;96439.22;;;28.04
50206;BMP280;36098;48.390;10.856;2022-07-24T01:07:08;96431.53;;;28.02
50206;BMP280;36098;48.390;10.856;2022-07-24T01:09:34;96430.94;;;28.05
50206;BMP280;36098;48.390;10.856;2022-07-24T01:12:00;96436.25;;;28.05
50206;BMP280;36098;48.390;10.856;2022-07-24T01:14:26;96429.38;;;28.04
50206;BMP280;36098;48.390;10.856;2022-07-24T01:16:53;96428.78;;;28.07
50206;BMP280;36098;48.390;10.856;2022-07-24T01:19:18;96431.75;;;28.06
50206;BMP280;36098;48.390;10.856;2022-07-24T01:21:47;96425.66;;;28.05
50206;BMP280;36098;48.390;10.856;2022-07-24T01:24:13;96428.41;;;28.00
50206;BMP280;36098;48.390;10.856;2022-07-24T01:26:38;96422.31;;;28.00
50206;BMP280;36098;48.390;10.856;2022-07-24T01:29:03;96424.06;;;28.04
50206;BMP280;36098;48.390;10.856;2022-07-24T01:31:29;96428.41;;;28.00
50206;BMP280;36098;48.390;10.856;2022-07-24T01:33:54;96425.16;;;28.03
50206;BMP280;36098;48.390;10.856;2022-07-24T01:36:19;96426.06;;;28.12
50206;BMP280;36098;48.390;10.856;2022-07-24T01:38:45;96429.00;;;28.11
50206;BMP280;36098;48.390;10.856;2022-07-24T01:41:10;96430.94;;;28.05
50206;BMP280;36098;48.390;10.856;2022-07-24T01:43:35;96432.13;;;27.99
50206;BMP280;36098;48.390;10.856;2022-07-24T01:46:01;96436.84;;;28.02
50206;BMP280;36098;48.390;10.856;2022-07-24T01:48:26;96432.75;;;28.10
50206;BMP280;36098;48.390;10.856;2022-07-24T01:50:51;96431.00;;;28.19
50206;BMP280;36098;48.390;10.856;2022-07-24T01:53:17;96428.22;;;28.10
50206;BMP280;36098;48.390;10.856;2022-07-24T01:55:42;96426.56;;;28.14
50206;BMP280;36098;48.390;10.856;2022-07-24T01:58:07;96420.66;;;28.17
50206;BMP280;36098;48.390;10.856;2022-07-24T02:00:33;96425.47;;;28.15
50206;BMP280;36098;48.390;10.856;2022-07-24T02:02:58;96422.34;;;28.13
50206;BMP280;36098;48.390;10.856;2022-07-24T02:05:23;96421.53;;;28.13
50206;BMP280;36098;48.390;10.856;2022-07-24T02:07:55;96422.72;;;28.07
50206;BMP280;36098;48.390;10.856;2022-07-24T02:10:21;96424.50;;;28.11
50206;BMP280;36098;48.390;10.856;2022-07-24T02:12:48;96424.00;;;28.09
50206;BMP280;36098;48.390;10.856;2022-07-24T02:15:13;96431.66;;;28.11
50206;BMP280;36098;48.390;10.856;2022-07-24T02:17:38;96434.53;;;28.14
50206;BMP280;36098;48.390;10.856;2022-07-24T02:20:04;96424.50;;;28.11
50206;BMP280;36098;48.390;10.856;2022-07-24T02:22:30;96425.28;;;28.12
50206;BMP280;36098;48.390;10.856;2022-07-24T02:24:55;96427.31;;;28.01
50206;BMP280;36098;48.390;10.856;2022-07-24T02:27:20;96428.22;;;28.10
50206;BMP280;36098;48.390;10.856;2022-07-24T02:29:46;96434.69;;;28.04
50206;BMP280;36098;48.390;10.856;2022-07-24T02:32:11;96427.03;;;28.03
50206;BMP280;36098;48.390;10.856;2022-07-24T02:34:36;96429.38;;;28.04
50206;BMP280;36098;48.390;10.856;2022-07-24T02:37:02;96438.84;;;28.10
50206;BMP280;36098;48.390;10.856;2022-07-24T02:39:27;96432.94;;;28.13
50206;BMP280;36098;48.390;10.856;2022-07-24T02:41:52;96436.47;;;28.09
50206;BMP280;36098;48.390;10.856;2022-07-24T02:44:17;96436.88;;;28.16
50206;BMP280;36098;48.390;10.856;2022-07-24T02:46:43;96435.50;;;28.18
50206;BMP280;36098;48.390;10.856;2022-07-24T02:49:08;96436.09;;;28.15
50206;BMP280;36098;48.390;10.856;2022-07-24T02:51:33;96441.00;;;28.08
50206;BMP280;36098;48.390;10.856;2022-07-24T02:53:58;96438.53;;;28.12
50206;BMP280;36098;48.390;10.856;2022-07-24T02:56:24;96436.47;;;28.09
50206;BMP280;36098;48.390;10.856;2022-07-24T02:58:49;96427.22;;;28.06
50206;BMP280;36098;48.390;10.856;2022-07-24T03:01:14;96431.44;;;28.07
50206;BMP280;36098;48.390;10.856;2022-07-24T03:03:39;96425.97;;;28.17
50206;BMP280;36098;48.390;10.856;2022-07-24T03:06:05;96427.16;;;28.11
50206;BMP280;36098;48.390;10.856;2022-07-24T03:08:30;96429.31;;;28.09
50206;BMP280;36098;48.390;10.856;2022-07-24T03:10:55;96432.75;;;28.10
50206;BMP280;36098;48.390;10.856;2022-07-24T03:13:20;96431.38;;;28.12
50206;BMP280;36098;48.390;10.856;2022-07-24T03:15:46;96428.78;;;28.07
50206;BMP280;36098;48.390;10.856;2022-07-24T03:18:11;96429.19;;;28.01
50206;BMP280;36098;48.390;10.856;2022-07-24T03:20:36;96425.47;;;28.02
50206;BMP280;36098;48.390;10.856;2022-07-24T03:23:02;96426.44;;;27.92
50206;BMP280;36098;48.390;10.856;2022-07-24T03:25:27;96426.81;;;27.99
50206;BMP280;36098;48.390;10.856;2022-07-24T03:27:52;96433.44;;;28.02
50206;BMP280;36098;48.390;10.856;2022-07-24T03:30:18;96433.59;;;27.92
50206;BMP280;36098;48.390;10.856;2022-07-24T03:32:44;96431.63;;;27.84
50206;BMP280;36098;48.390;10.856;2022-07-24T03:35:10;96424.25;;;27.81
50206;BMP280;36098;48.390;10.856;2022-07-24T03:37:36;96420.31;;;27.92
50206;BMP280;36098;48.390;10.856;2022-07-24T03:40:02;96420.63;;;27.90
50206;BMP280;36098;48.390;10.856;2022-07-24T03:42:27;96417.75;;;27.87
50206;BMP280;36098;48.390;10.856;2022-07-24T03:44:53;96418.16;;;27.94
50206;BMP280;36098;48.390;10.856;2022-07-24T03:47:18;96420.53;;;27.95
50206;BMP280;36098;48.390;10.856;2022-07-24T03:49:43;96418.16;;;27.94
50206;BMP280;36098;48.390;10.856;2022-07-24T03:52:09;96422.31;;;28.00
50206;BMP280;36098;48.390;10.856;2022-07-24T03:54:34;96413.94;;;27.93
50206;BMP280;36098;48.390;10.856;2022-07-24T03:56:59;96415.59;;;27.89
50206;BMP280;36098;48.390;10.856;2022-07-24T03:59:25;96420.03;;;27.93
50206;BMP280;36098;48.390;10.856;2022-07-24T04:01:50;96427.31;;;28.01
50206;BMP280;36098;48.390;10.856;2022-07-24T04:04:15;96428.41;;;28.00
50206;BMP280;36098;48.390;10.856;2022-07-24T04:06:41;96429.69;;;28.03
50206;BMP280;36098;48.390;10.856;2022-07-24T04:09:06;96424.84;;;27.91
50206;BMP280;36098;48.390;10.856;2022-07-24T04:11:32;96440.78;;;27.91
50206;BMP280;36098;48.390;10.856;2022-07-24T04:13:58;96441.53;;;27.92
50206;BMP280;36098;48.390;10.856;2022-07-24T04:16:23;96444.09;;;27.83
50206;BMP280;36098;48.390;10.856;2022-07-24T04:18:49;96440.28;;;27.89
50206;BMP280;36098;48.390;10.856;2022-07-24T04:21:14;96448.81;;;27.86
50206;BMP280;36098;48.390;10.856;2022-07-24T04:23:40;96451.94;;;27.88
50206;BMP280;36098;48.390;10.856;2022-07-24T04:26:05;96453.75;;;27.93
50206;BMP280;36098;48.390;10.856;2022-07-24T04:28:31;96448.25;;;27.89
50206;BMP280;36098;48.390;10.856;2022-07-24T04:30:56;96446.09;;;27.91
50206;BMP280;36098;48.390;10.856;2022-07-24T04:33:22;96446.09;;;27.91
50206;BMP280;36098;48.390;10.856;2022-07-24T04:35:47;96452.97;;;27.92
50206;BMP280;36098;48.390;10.856;2022-07-24T04:38:12;96449.03;;;27.90
50206;BMP280;36098;48.390;10.856;2022-07-24T04:40:38;96449.38;;;27.83
50206;BMP280;36098;48.390;10.856;2022-07-24T04:43:03;96451.28;;;27.83
50206;BMP280;36098;48.390;10.856;2022-07-24T04:45:28;96449.59;;;27.87
50206;BMP280;36098;48.390;10.856;2022-07-24T04:47:54;96455.13;;;27.90
50206;BMP280;36098;48.390;10.856;2022-07-24T04:50:19;96451.41;;;27.91
50206;BMP280;36098;48.390;10.856;2022-07-24T04:52:44;96463.38;;;27.89
50206;BMP280;36098;48.390;10.856;2022-07-24T04:55:10;96461.78;;;27.88
50206;BMP280;36098;48.390;10.856;2022-07-24T04:57:36;96471.78;;;27.77
50206;BMP280;36098;48.390;10.856;2022-07-24T05:00:02;96465.41;;;27.78
50206;BMP280;36098;48.390;10.856;2022-07-24T05:02:28;96461.22;;;27.91
50206;BMP280;36098;48.390;10.856;2022-07-24T05:04:53;96457.56;;;27.87
50206;BMP280;36098;48.390;10.856;2022-07-24T05:07:18;96460.94;;;27.92
50206;BMP280;36098;48.390;10.856;2022-07-24T05:09:44;96462.00;;;27.91
50206;BMP280;36098;48.390;10.856;2022-07-24T05:12:09;96460.94;;;27.92
50206;BMP280;36098;48.390;10.856;2022-07-24T05:14:34;96462.06;;;27.86
50206;BMP280;36098;48.390;10.856;2022-07-24T05:16:59;96464.91;;;27.76
50206;BMP280;36098;48.390;10.856;2022-07-24T05:19:25;96464.81;;;27.81
50206;BMP280;36098;48.390;10.856;2022-07-24T05:21:50;96464.16;;;27.89
50206;BMP280;36098;48.390;10.856;2022-07-24T05:24:15;96463.38;;;27.89
50206;BMP280;36098;48.390;10.856;2022-07-24T05:26:40;96460.91;;;27.79
50206;BMP280;36098;48.390;10.856;2022-07-24T05:29:06;96461.56;;;27.84
50206;BMP280;36098;48.390;10.856;2022-07-24T05:31:32;96463.72;;;27.82
50206;BMP280;36098;48.390;10.856;2022-07-24T05:33:58;96460.09;;;27.78
50206;BMP280;36098;48.390;10.856;2022-07-24T05:36:23;96463.16;;;27.85
50206;BMP280;36098;48.390;10.856;2022-07-24T05:38:49;96461.56;;;27.84
50206;BMP280;36098;48.390;10.856;2022-07-24T05:41:14;96463.16;;;27.85
50206;BMP280;36098;48.390;10.856;2022-07-24T05:43:40;96461.53;;;27.71
50206;BMP280;36098;48.390;10.856;2022-07-24T05:46:05;96460.38;;;27.77
50206;BMP280;36098;48.390;10.856;2022-07-24T05:48:31;96457.44;;;27.78
50206;BMP280;36098;48.390;10.856;2022-07-24T05:50:56;96458.72;;;27.81
50206;BMP280;36098;48.390;10.856;2022-07-24T05:53:22;96462.75;;;27.78
50206;BMP280;36098;48.390;10.856;2022-07-24T05:55:47;96469.91;;;27.78
50206;BMP280;36098;48.390;10.856;2022-07-24T05:58:13;96465.97;;;27.75
50206;BMP280;36098;48.390;10.856;2022-07-24T06:00:38;96473.19;;;27.88
50206;BMP280;36098;48.390;10.856;2022-07-24T06:03:03;96464.53;;;27.83
50206;BMP280;36098;48.390;10.856;2022-07-24T06:05:29;96463.59;;;27.92
50206;BMP280;36098;48.390;10.856;2022-07-24T06:07:54;96471.06;;;27.90
50206;BMP280;36098;48.390;10.856;2022-07-24T06:10:19;96471.25;;;27.94
50206;BMP280;36098;48.390;10.856;2022-07-24T06:12:45;96473.03;;;27.98
50206;BMP280;36098;48.390;10.856;2022-07-24T06:15:11;96466.38;;;28.01
50206;BMP280;36098;48.390;10.856;2022-07-24T06:17:36;96464.94;;;27.90
50206;BMP280;36098;48.390;10.856;2022-07-24T06:20:02;96466.72;;;27.94
50206;BMP280;36098;48.390;10.856;2022-07-24T06:22:28;96463.66;;;27.87
50206;BMP280;36098;48.390;10.856;2022-07-24T06:24:53;96460.44;;;27.90
50206;BMP280;36098;48.390;10.856;2022-07-24T06:27:20;96460.22;;;27.87
50206;BMP280;36098;48.390;10.856;2022-07-24T06:29:45;96463.94;;;27.86
50206;BMP280;36098;48.390;10.856;2022-07-24T06:32:11;96456.81;;;28.00
50206;BMP280;36098;48.390;10.856;2022-07-24T06:34:36;96462.78;;;27.92
50206;BMP280;36098;48.390;10.856;2022-07-24T06:37:02;96464.78;;;28.00
50206;BMP280;36098;48.390;10.856;2022-07-24T06:39:27;96468.13;;;27.73
50206;BMP280;36098;48.390;10.856;2022-07-24T06:41:53;96461.53;;;27.52
50206;BMP280;36098;48.390;10.856;2022-07-24T06:44:20;96465.50;;;27.36
50206;BMP280;36098;48.390;10.856;2022-07-24T06:46:45;96462.91;;;27.31
50206;BMP280;36098;48.390;10.856;2022-07-24T06:49:10;96464.69;;;27.36
50206;BMP280;36098;48.390;10.856;2022-07-24T06:51:35;96463.09;;;27.35
50206;BMP280;36098;48.390;10.856;2022-07-24T06:54:01;96470.22;;;27.21
50206;BMP280;36098;48.390;10.856;2022-07-24T06:56:26;96462.78;;;27.23
50206;BMP280;36098;48.390;10.856;2022-07-24T06:58:51;96464.03;;;27.25
50206;BMP280;36098;48.390;10.856;2022-07-24T07:01:17;96457.38;;;27.28
50206;BMP280;36098;48.390;10.856;2022-07-24T07:03:42;96468.56;;;27.25
50206;BMP280;36098;48.390;10.856;2022-07-24T07:06:08;96455.00;;;27.26
50206;BMP280;36098;48.390;10.856;2022-07-24T07:08:33;96468.06;;;27.41
50206;BMP280;36098;48.390;10.856;2022-07-24T07:10:58;96472.19;;;27.47
50206;BMP280;36098;48.390;10.856;2022-07-24T07:13:24;96469.56;;;27.47
50206;BMP280;36098;48.390;10.856;2022-07-24T07:15:49;96462.91;;;27.50
50206;BMP280;36098;48.390;10.856;2022-07-24T07:18:14;96470.06;;;27.49
50206;BMP280;36098;48.390;10.856;2022-07-24T07:20:40;96466.47;;;27.40
50206;BMP280;36098;48.390;10.856;2022-07-24T07:23:05;96462.13;;;27.31
50206;BMP280;36098;48.390;10.856;2022-07-24T07:25:30;96466.47;;;27.40
50206;BMP280;36098;48.390;10.856;2022-07-24T07:27:55;96466.47;;;27.40
50206;BMP280;36098;48.390;10.856;2022-07-24T07:30:21;96462.66;;;27.65
50206;BMP280;36098;48.390;10.856;2022-07-24T07:32:46;96458.72;;;27.62
50206;BMP280;36098;48.390;10.856;2022-07-24T07:35:12;96469.56;;;27.47
50206;BMP280;36098;48.390;10.856;2022-07-24T07:37:37;96472.00;;;27.25
50206;BMP280;36098;48.390;10.856;2022-07-24T07:40:03;96478.84;;;27.08
50206;BMP280;36098;48.390;10.856;2022-07-24T07:42:28;96471.16;;;27.06
50206;BMP280;36098;48.390;10.856;2022-07-24T07:44:54;96463.34;;;27.20
50206;BMP280;36098;48.390;10.856;2022-07-24T07:47:19;96463.84;;;27.22
50206;BMP280;36098;48.390;10.856;2022-07-24T07:49:44;96466.66;;;27.30
50206;BMP280;36098;48.390;10.856;2022-07-24T07:52:10;96481.91;;;27.20
50206;BMP280;36098;48.390;10.856;2022-07-24T07:54:35;96482.81;;;27.11
50206;BMP280;36098;48.390;10.856;2022-07-24T07:57:00;96482.44;;;27.17
50206;BMP280;36098;48.390;10.856;2022-07-24T07:59:26;96475.81;;;27.19
50206;BMP280;36098;48.390;10.856;2022-07-24T08:01:51;96479.03;;;27.35
50206;BMP280;36098;48.390;10.856;2022-07-24T08:04:16;96475.25;;;27.41
50206;BMP280;36098;48.390;10.856;2022-07-24T08:06:41;96475.16;;;27.46
50206;BMP280;36098;48.390;10.856;2022-07-24T08:09:07;96473.50;;;27.50
50206;BMP280;36098;48.390;10.856;2022-07-24T08:11:32;96476.50;;;27.43
50206;BMP280;36098;48.390;10.856;2022-07-24T08:13:58;96477.09;;;27.22
50206;BMP280;36098;48.390;10.856;2022-07-24T08:16:23;96466.34;;;27.32
50206;BMP280;36098;48.390;10.856;2022-07-24T08:18:48;96472.16;;;27.15
50206;BMP280;36098;48.390;10.856;2022-07-24T08:21:14;96470.00;;;26.94
50206;BMP280;36098;48.390;10.856;2022-07-24T08:23:41;96468.94;;;26.95
50206;BMP280;36098;48.390;10.856;2022-07-24T08:26:06;96471.66;;;27.13
50206;BMP280;36098;48.390;10.856;2022-07-24T08:28:32;96465.13;;;27.24
50206;BMP280;36098;48.390;10.856;2022-07-24T08:30:58;96458.75;;;27.25
50206;BMP280;36098;48.390;10.856;2022-07-24T08:33:23;96456.72;;;27.36
50206;BMP280;36098;48.390;10.856;2022-07-24T08:35:48;96448.88;;;27.49
50206;BMP280;36098;48.390;10.856;2022-07-24T08:38:14;96454.53;;;27.43
50206;BMP280;36098;48.390;10.856;2022-07-24T08:40:39;96451.56;;;27.44
50206;BMP280;36098;48.390;10.856;2022-07-24T08:43:06;96448.00;;;27.35
50206;BMP280;36098;48.390;10.856;2022-07-24T08:45:35;96453.94;;;27.46
50206;BMP280;36098;48.390;10.856;2022-07-24T08:48:04;96453.59;;;27.52
50206;BMP280;36098;48.390;10.856;2022-07-24T08:50:32;96461.31;;;27.49
50206;BMP280;36098;48.390;10.856;2022-07-24T08:52:58;96454.50;;;27.61
50206;BMP280;36098;48.390;10.856;2022-07-24T08:55:23;96453.16;;;27.45
50206;BMP280;36098;48.390;10.856;2022-07-24T08:57:49;96459.31;;;27.22
50206;BMP280;36098;48.390;10.856;2022-07-24T09:00:14;96458.41;;;27.13
50206;BMP280;36098;48.390;10.856;2022-07-24T09:02:40;96451.16;;;27.37
50206;BMP280;36098;48.390;10.856;2022-07-24T09:05:05;96453.31;;;27.35
50206;BMP280;36098;48.390;10.856;2022-07-24T09:07:32;96460.75;;;27.33
50206;BMP280;36098;48.390;10.856;2022-07-24T09:12:39;96457.81;;;27.53
50206;BMP280;36098;48.390;10.856;2022-07-24T09:15:21;96455.75;;;27.50
50206;BMP280;36098;48.390;10.856;2022-07-24T09:17:58;96455.66;;;27.55
50206;BMP280;36098;48.390;10.856;2022-07-24T09:20:25;96451.00;;;27.47
50206;BMP280;36098;48.390;10.856;2022-07-24T09:22:52;96452.88;;;27.47
50206;BMP280;36098;48.390;10.856;2022-07-24T09:25:30;96462.75;;;27.60
50206;BMP280;36098;48.390;10.856;2022-07-24T09:28:01;96456.16;;;27.57
50206;BMP280;36098;48.390;10.856;2022-07-24T09:30:32;96459.59;;;27.39
50206;BMP280;36098;48.390;10.856;2022-07-24T09:33:02;96460.59;;;27.43
50206;BMP280;36098;48.390;10.856;2022-07-24T09:35:33;96452.50;;;27.53
50206;BMP280;36098;48.390;10.856;2022-07-24T09:38:00;96446.13;;;27.54
50206;BMP280;36098;48.390;10.856;2022-07-24T09:40:31;96458.72;;;27.62
50206;BMP280;36098;48.390;10.856;2022-07-24T09:43:28;96455.44;;;27.70
50206;BMP280;36098;48.390;10.856;2022-07-24T09:48:22;96446.25;;;27.81
50206;BMP280;36098;48.390;10.856;2022-07-24T09:50:56;96445.00;;;27.42
50206;BMP280;36098;48.390;10.856;2022-07-24T09:53:24;96441.75;;;27.45
50206;BMP280;36098;48.390;10.856;2022-07-24T09:56:07;96444.59;;;27.48
50206;BMP280;36098;48.390;10.856;2022-07-24T09:58:35;96438.25;;;27.49
50206;BMP280;36098;48.390;10.856;2022-07-24T10:01:02;96434.44;;;27.55
50206;BMP280;36098;48.390;10.856;2022-07-24T10:03:30;96438.56;;;27.61
50206;BMP280;36098;48.390;10.856;2022-07-24T10:06:02;96433.69;;;27.68
50206;BMP280;36098;48.390;10.856;2022-07-24T10:08:28;96434.56;;;27.64
50206;BMP280;36098;48.390;10.856;2022-07-24T10:10:54;96428.47;;;27.63
50206;BMP280;36098;48.390;10.856;2022-07-24T10:13:20;96429.25;;;27.82
50206;BMP280;36098;48.390;10.856;2022-07-24T10:16:03;96423.44;;;27.80
50206;BMP280;36098;48.390;10.856;2022-07-24T10:21:23;96422.66;;;27.80
50206;BMP280;36098;48.390;10.856;2022-07-24T10:26:44;96404.22;;;28.02
50206;BMP280;36098;48.390;10.856;2022-07-24T10:29:12;96414.97;;;27.78
50206;BMP280;36098;48.390;10.856;2022-07-24T10:34:12;96414.25;;;27.91
50206;BMP280;36098;48.390;10.856;2022-07-24T10:36:45;96409.13;;;27.95
50206;BMP280;36098;48.390;10.856;2022-07-24T10:39:20;96407.97;;;28.01
50206;BMP280;36098;48.390;10.856;2022-07-24T10:41:59;96406.28;;;28.05
50206;BMP280;36098;48.390;10.856;2022-07-24T10:44:25;96405.97;;;28.06
50206;BMP280;36098;48.390;10.856;2022-07-24T10:47:00;96396.75;;;28.17
50206;BMP280;36098;48.390;10.856;2022-07-24T10:49:47;96404.63;;;28.09
50206;BMP280;36098;48.390;10.856;2022-07-24T10:52:25;96398.72;;;28.12
50206;BMP280;36098;48.390;10.856;2022-07-24T10:55:21;96401.19;;;28.08
50206;BMP280;36098;48.390;10.856;2022-07-24T10:58:03;96401.19;;;28.08
50206;BMP280;36098;48.390;10.856;2022-07-24T11:00:35;96400.28;;;28.13
50206;BMP280;36098;48.390;10.856;2022-07-24T11:05:31;96401.69;;;28.10
50206;BMP280;36098;48.390;10.856;2022-07-24T11:10:54;96398.03;;;28.06
50206;BMP280;36098;48.390;10.856;2022-07-24T11:21:38;96391.66;;;28.61
50206;BMP280;36098;48.390;10.856;2022-07-24T11:26:59;96377.50;;;28.66
50206;BMP280;36098;48.390;10.856;2022-07-24T11:29:30;96383.91;;;28.65
50206;BMP280;36098;48.390;10.856;2022-07-24T11:32:01;96376.53;;;28.62
50206;BMP280;36098;48.390;10.856;2022-07-24T11:34:28;96372.00;;;28.62
50206;BMP280;36098;48.390;10.856;2022-07-24T11:36:55;96372.97;;;28.66
50206;BMP280;36098;48.390;10.856;2022-07-24T11:39:27;96357.09;;;28.75
50206;BMP280;36098;48.390;10.856;2022-07-24T11:42:05;96351.50;;;28.76
50206;BMP280;36098;48.390;10.856;2022-07-24T11:44:35;96352.28;;;28.77
50206;BMP280;36098;48.390;10.856;2022-07-24T11:47:15;96354.03;;;28.81
50206;BMP280;36098;48.390;10.856;2022-07-24T11:52:17;96359.81;;;28.34
50206;BMP280;36098;48.390;10.856;2022-07-24T11:54:43;96354.28;;;28.44
50206;BMP280;36098;48.390;10.856;2022-07-24T11:57:25;96359.78;;;28.61
50206;BMP280;36098;48.390;10.856;2022-07-24T11:59:51;96338.53;;;28.61
50206;BMP280;36098;48.390;10.856;2022-07-24T12:02:18;96343.03;;;28.74
50206;BMP280;36098;48.390;10.856;2022-07-24T12:04:44;96340.88;;;28.76
50206;BMP280;36098;48.390;10.856;2022-07-24T12:07:12;96333.59;;;28.82
50206;BMP280;36098;48.390;10.856;2022-07-24T12:09:45;96329.16;;;28.77
50206;BMP280;36098;48.390;10.856;2022-07-24T12:12:20;96335.75;;;28.80
50206;BMP280;36098;48.390;10.856;2022-07-24T12:14:46;96333.56;;;28.95
50206;BMP280;36098;48.390;10.856;2022-07-24T12:17:12;96324.91;;;28.90
50206;BMP280;36098;48.390;10.856;2022-07-24T12:19:37;96328.06;;;28.92
50206;BMP280;36098;48.390;10.856;2022-07-24T12:22:03;96316.22;;;28.84
50206;BMP280;36098;48.390;10.856;2022-07-24T12:24:30;96319.88;;;28.88
50206;BMP280;36098;48.390;10.856;2022-07-24T12:26:57;96308.31;;;28.71
50206;BMP280;36098;48.390;10.856;2022-07-24T12:29:25;96311.63;;;28.76
50206;BMP280;36098;48.390;10.856;2022-07-24T12:32:15;96299.50;;;28.84
50206;BMP280;36098;48.390;10.856;2022-07-24T12:34:46;96306.78;;;28.92
50206;BMP280;36098;48.390;10.856;2022-07-24T12:37:20;96303.94;;;28.88
50206;BMP280;36098;48.390;10.856;2022-07-24T12:39:52;96302.19;;;28.84
50206;BMP280;36098;48.390;10.856;2022-07-24T12:42:29;96299.81;;;28.82
50206;BMP280;36098;48.390;10.856;2022-07-24T12:45:05;96305.16;;;29.04
50206;BMP280;36098;48.390;10.856;2022-07-24T12:47:31;96302.88;;;28.89
50206;BMP280;36098;48.390;10.856;2022-07-24T12:49:57;96303.88;;;28.80
50206;BMP280;36098;48.390;10.856;2022-07-24T12:52:24;96290.84;;;28.92
50206;BMP280;36098;48.390;10.856;2022-07-24T12:54:51;96286.31;;;28.92
50206;BMP280;36098;48.390;10.856;2022-07-24T12:57:20;96291.53;;;28.84
50206;BMP280;36098;48.390;10.856;2022-07-24T12:59:48;96287.84;;;28.71
50206;BMP280;36098;48.390;10.856;2022-07-24T13:02:20;96289.09;;;28.74
50206;BMP280;36098;48.390;10.856;2022-07-24T13:04:49;96288.22;;;28.78
50206;BMP280;36098;48.390;10.856;2022-07-24T13:07:16;96279.41;;;28.69
50206;BMP280;36098;48.390;10.856;2022-07-24T13:09:42;96270.75;;;28.64
50206;BMP280;36098;48.390;10.856;2022-07-24T13:12:09;96263.25;;;28.66
50206;BMP280;36098;48.390;10.856;2022-07-24T13:14:35;96263.75;;;28.68
50206;BMP280;36098;48.390;10.856;2022-07-24T13:17:03;96260.78;;;28.69
50206;BMP280;36098;48.390;10.856;2022-07-24T13:19:29;96262.47;;;28.65
50206;BMP280;36098;48.390;10.856;2022-07-24T13:21:54;96260.88;;;28.64
50206;BMP280;36098;48.390;10.856;2022-07-24T13:24:19;96257.16;;;28.65
50206;BMP280;36098;48.390;10.856;2022-07-24T13:26:46;96260.00;;;28.69
50206;BMP280;36098;48.390;10.856;2022-07-24T13:29:11;96267.69;;;28.70
50206;BMP280;36098;48.390;10.856;2022-07-24T13:31:37;96261.09;;;28.68
50206;BMP280;36098;48.390;10.856;2022-07-24T13:34:03;96261.88;;;28.68
50206;BMP280;36098;48.390;10.856;2022-07-24T13:36:28;96257.06;;;28.70
50206;BMP280;36098;48.390;10.856;2022-07-24T13:38:54;96251.75;;;28.70
50206;BMP280;36098;48.390;10.856;2022-07-24T13:41:20;96246.31;;;28.75
50206;BMP280;36098;48.390;10.856;2022-07-24T13:43:47;96245.50;;;28.75
50206;BMP280;36098;48.390;10.856;2022-07-24T13:46:14;96242.06;;;28.74
50206;BMP280;36098;48.390;10.856;2022-07-24T13:48:39;96240.66;;;28.77
50206;BMP280;36098;48.390;10.856;2022-07-24T13:51:04;96239.09;;;28.76
50206;BMP280;36098;48.390;10.856;2022-07-24T13:53:30;96241.94;;;28.79
50206;BMP280;36098;48.390;10.856;2022-07-24T13:55:55;96243.03;;;28.78
50206;BMP280;36098;48.390;10.856;2022-07-24T13:58:20;96235.06;;;28.78
50206;BMP280;36098;48.390;10.856;2022-07-24T14:00:47;96229.47;;;28.80
50206;BMP280;36098;48.390;10.856;2022-07-24T14:03:12;96221.78;;;28.78
50206;BMP280;36098;48.390;10.856;2022-07-24T14:05:37;96218.63;;;28.76
50206;BMP280;36098;48.390;10.856;2022-07-24T14:08:03;96220.22;;;28.77
50206;BMP280;36098;48.390;10.856;2022-07-24T14:10:29;96214.53;;;28.70
50206;BMP280;36098;48.390;10.856;2022-07-24T14:12:54;96219.72;;;28.75
50206;BMP280;36098;48.390;10.856;2022-07-24T14:15:19;96217.69;;;28.72
50206;BMP280;36098;48.390;10.856;2022-07-24T14:17:44;96213.13;;;28.73
50206;BMP280;36098;48.390;10.856;2022-07-24T14:20:11;96214.28;;;28.80
50206;BMP280;36098;48.390;10.856;2022-07-24T14:22:40;96214.91;;;28.77
50206;BMP280;36098;48.390;10.856;2022-07-24T14:25:06;96213.81;;;28.78
50206;BMP280;36098;48.390;10.856;2022-07-24T14:27:31;96212.53;;;28.76